sensor_id;sensor_type;location;lat;lon;timestamp;temperature;humidity
72320;SHT30;60269;52.502;16.732;2023-03-31T00:00:14;8.24;97.91
72320;SHT30;60269;52.502;16.732;2023-03-31T00:04:08;8.17;98.13
72320;SHT30;60269;52.502;16.732;2023-03-31T00:07:40;8.02;98.36
72320;SHT30;60269;52.502;16.732;2023-03-31T00:11:12;7.93;98.42
72320;SHT30;60269;52.502;16.732;2023-03-31T00:14:44;7.76;98.45
72320;SHT30;60269;52.502;16.732;2023-03-31T00:18:17;7.65;98.71
72320;SHT30;60269;52.502;16.732;2023-03-31T00:21:49;7.58;98.93
72320;SHT30;60269;52.502;16.732;2023-03-31T00:25:22;7.62;98.96
72320;SHT30;60269;52.502;16.732;2023-03-31T00:28:54;7.58;98.99
72320;SHT30;60269;52.502;16.732;2023-03-31T00:32:27;7.56;99.20
72320;SHT30;60269;52.502;16.732;2023-03-31T00:35:59;7.67;99.37
72320;SHT30;60269;52.502;16.732;2023-03-31T00:39:33;7.62;99.24
72320;SHT30;60269;52.502;16.732;2023-03-31T00:43:23;7.59;99.41
72320;SHT30;60269;52.502;16.732;2023-03-31T00:47:00;7.65;99.55
72320;SHT30;60269;52.502;16.732;2023-03-31T00:50:40;7.46;99.41
72320;SHT30;60269;52.502;16.732;2023-03-31T00:54:14;7.32;99.64
72320;SHT30;60269;52.502;16.732;2023-03-31T00:57:47;7.42;99.81
72320;SHT30;60269;52.502;16.732;2023-03-31T01:01:23;7.46;99.74
72320;SHT30;60269;52.502;16.732;2023-03-31T01:04:59;7.62;99.68
72320;SHT30;60269;52.502;16.732;2023-03-31T01:08:33;7.58;99.48
72320;SHT30;60269;52.502;16.732;2023-03-31T01:12:08;7.71;99.41
72320;SHT30;60269;52.502;16.732;2023-03-31T01:15:42;7.73;99.25
72320;SHT30;60269;52.502;16.732;2023-03-31T01:19:38;7.74;99.14
72320;SHT30;60269;52.502;16.732;2023-03-31T01:34:41;7.94;98.60
72320;SHT30;60269;52.502;16.732;2023-03-31T01:50:22;8.02;98.48
72320;SHT30;60269;52.502;16.732;2023-03-31T01:57:59;8.04;98.13
72320;SHT30;60269;52.502;16.732;2023-03-31T02:01:36;8.05;98.05
72320;SHT30;60269;52.502;16.732;2023-03-31T02:05:18;8.05;98.03
72320;SHT30;60269;52.502;16.732;2023-03-31T02:08:54;8.01;98.00
72320;SHT30;60269;52.502;16.732;2023-03-31T02:12:30;8.11;97.74
72320;SHT30;60269;52.502;16.732;2023-03-31T02:16:07;8.12;97.53
72320;SHT30;60269;52.502;16.732;2023-03-31T02:19:42;8.11;97.59
72320;SHT30;60269;52.502;16.732;2023-03-31T02:23:18;8.14;97.32
72320;SHT30;60269;52.502;16.732;2023-03-31T02:26:56;8.12;97.44
72320;SHT30;60269;52.502;16.732;2023-03-31T02:30:38;8.14;97.28
72320;SHT30;60269;52.502;16.732;2023-03-31T02:34:12;8.11;97.38
72320;SHT30;60269;52.502;16.732;2023-03-31T02:37:44;8.11;97.22
72320;SHT30;60269;52.502;16.732;2023-03-31T02:41:17;8.08;97.34
72320;SHT30;60269;52.502;16.732;2023-03-31T02:44:49;8.07;97.37
72320;SHT30;60269;52.502;16.732;2023-03-31T02:48:25;8.10;97.32
72320;SHT30;60269;52.502;16.732;2023-03-31T02:56:18;7.98;97.48
72320;SHT30;60269;52.502;16.732;2023-03-31T03:07:58;7.98;97.52
72320;SHT30;60269;52.502;16.732;2023-03-31T03:11:45;7.97;97.44
72320;SHT30;60269;52.502;16.732;2023-03-31T03:15:29;7.97;97.38
72320;SHT30;60269;52.502;16.732;2023-03-31T03:19:05;7.98;97.40
72320;SHT30;60269;52.502;16.732;2023-03-31T03:22:38;8.00;97.25
72320;SHT30;60269;52.502;16.732;2023-03-31T03:26:11;7.97;97.36
72320;SHT30;60269;52.502;16.732;2023-03-31T03:29:43;7.97;97.38
72320;SHT30;60269;52.502;16.732;2023-03-31T03:33:15;7.91;97.43
72320;SHT30;60269;52.502;16.732;2023-03-31T03:36:48;7.97;97.30
72320;SHT30;60269;52.502;16.732;2023-03-31T03:40:20;7.98;97.32
72320;SHT30;60269;52.502;16.732;2023-03-31T03:43:52;8.01;97.07
72320;SHT30;60269;52.502;16.732;2023-03-31T03:47:24;8.05;97.11
72320;SHT30;60269;52.502;16.732;2023-03-31T03:51:00;8.04;97.17
72320;SHT30;60269;52.502;16.732;2023-03-31T03:54:33;8.04;97.07
72320;SHT30;60269;52.502;16.732;2023-03-31T03:58:04;8.10;97.01
72320;SHT30;60269;52.502;16.732;2023-03-31T04:01:37;8.07;96.91
72320;SHT30;60269;52.502;16.732;2023-03-31T04:05:09;8.08;96.95
72320;SHT30;60269;52.502;16.732;2023-03-31T04:08:41;7.98;97.08
72320;SHT30;60269;52.502;16.732;2023-03-31T04:12:13;7.98;97.21
72320;SHT30;60269;52.502;16.732;2023-03-31T04:15:46;8.02;97.10
72320;SHT30;60269;52.502;16.732;2023-03-31T04:19:18;8.05;97.08
72320;SHT30;60269;52.502;16.732;2023-03-31T04:22:52;8.05;96.95
72320;SHT30;60269;52.502;16.732;2023-03-31T04:26:27;8.12;96.87
72320;SHT30;60269;52.502;16.732;2023-03-31T04:30:10;8.10;96.91
72320;SHT30;60269;52.502;16.732;2023-03-31T04:33:42;8.10;96.90
72320;SHT30;60269;52.502;16.732;2023-03-31T04:37:17;8.15;96.64
72320;SHT30;60269;52.502;16.732;2023-03-31T04:40:50;8.21;96.57
72320;SHT30;60269;52.502;16.732;2023-03-31T04:44:22;8.20;96.53
72320;SHT30;60269;52.502;16.732;2023-03-31T04:47:54;8.20;96.50
72320;SHT30;60269;52.502;16.732;2023-03-31T04:51:27;8.11;96.60
72320;SHT30;60269;52.502;16.732;2023-03-31T04:54:59;8.12;96.61
72320;SHT30;60269;52.502;16.732;2023-03-31T04:58:33;8.15;96.56
72320;SHT30;60269;52.502;16.732;2023-03-31T05:02:05;8.24;96.25
72320;SHT30;60269;52.502;16.732;2023-03-31T05:05:38;8.27;96.38
72320;SHT30;60269;52.502;16.732;2023-03-31T05:09:10;8.31;96.04
72320;SHT30;60269;52.502;16.732;2023-03-31T05:12:42;8.31;96.20
72320;SHT30;60269;52.502;16.732;2023-03-31T05:16:14;8.41;95.88
72320;SHT30;60269;52.502;16.732;2023-03-31T05:19:48;8.52;95.39
72320;SHT30;60269;52.502;16.732;2023-03-31T05:23:20;8.56;95.30
72320;SHT30;60269;52.502;16.732;2023-03-31T05:26:52;8.59;95.20
72320;SHT30;60269;52.502;16.732;2023-03-31T05:30:25;8.68;94.97
72320;SHT30;60269;52.502;16.732;2023-03-31T05:33:58;8.69;94.81
72320;SHT30;60269;52.502;16.732;2023-03-31T05:37:32;8.75;94.65
72320;SHT30;60269;52.502;16.732;2023-03-31T05:41:04;8.79;94.25
72320;SHT30;60269;52.502;16.732;2023-03-31T05:44:37;8.86;94.12
72320;SHT30;60269;52.502;16.732;2023-03-31T05:48:09;8.91;94.00
72320;SHT30;60269;52.502;16.732;2023-03-31T05:51:41;8.97;93.84
72320;SHT30;60269;52.502;16.732;2023-03-31T05:55:13;9.06;93.66
72320;SHT30;60269;52.502;16.732;2023-03-31T05:58:45;9.11;93.03
72320;SHT30;60269;52.502;16.732;2023-03-31T06:02:17;9.17;93.21
72320;SHT30;60269;52.502;16.732;2023-03-31T06:05:49;9.26;92.99
72320;SHT30;60269;52.502;16.732;2023-03-31T06:09:25;9.32;92.45
72320;SHT30;60269;52.502;16.732;2023-03-31T06:12:57;9.42;92.33
72320;SHT30;60269;52.502;16.732;2023-03-31T06:16:29;9.56;91.73
72320;SHT30;60269;52.502;16.732;2023-03-31T06:20:02;9.62;91.84
72320;SHT30;60269;52.502;16.732;2023-03-31T06:23:55;9.71;91.29
72320;SHT30;60269;52.502;16.732;2023-03-31T06:27:29;9.82;91.07
72320;SHT30;60269;52.502;16.732;2023-03-31T06:31:08;9.85;90.88
72320;SHT30;60269;52.502;16.732;2023-03-31T06:34:43;9.89;89.80
72320;SHT30;60269;52.502;16.732;2023-03-31T06:38:15;10.05;90.30
72320;SHT30;60269;52.502;16.732;2023-03-31T06:41:47;10.09;90.05
72320;SHT30;60269;52.502;16.732;2023-03-31T06:45:19;10.09;89.46
72320;SHT30;60269;52.502;16.732;2023-03-31T06:48:51;10.17;89.11
72320;SHT30;60269;52.502;16.732;2023-03-31T06:52:25;10.30;89.14
72320;SHT30;60269;52.502;16.732;2023-03-31T06:55:57;10.47;88.48
72320;SHT30;60269;52.502;16.732;2023-03-31T06:59:29;10.55;88.46
72320;SHT30;60269;52.502;16.732;2023-03-31T07:03:02;10.78;87.36
72320;SHT30;60269;52.502;16.732;2023-03-31T07:06:35;10.95;87.38
72320;SHT30;60269;52.502;16.732;2023-03-31T07:12:12;11.02;86.60
72320;SHT30;60269;52.502;16.732;2023-03-31T07:15:47;11.33;85.57
72320;SHT30;60269;52.502;16.732;2023-03-31T07:19:19;11.46;85.13
72320;SHT30;60269;52.502;16.732;2023-03-31T07:22:51;11.50;84.99
72320;SHT30;60269;52.502;16.732;2023-03-31T07:26:23;11.36;84.89
72320;SHT30;60269;52.502;16.732;2023-03-31T07:29:55;11.33;85.10
72320;SHT30;60269;52.502;16.732;2023-03-31T07:33:27;11.71;83.96
72320;SHT30;60269;52.502;16.732;2023-03-31T07:36:59;11.78;83.63
72320;SHT30;60269;52.502;16.732;2023-03-31T07:40:31;12.01;82.61
72320;SHT30;60269;52.502;16.732;2023-03-31T07:44:04;12.29;81.70
72320;SHT30;60269;52.502;16.732;2023-03-31T07:47:36;12.60;80.33
72320;SHT30;60269;52.502;16.732;2023-03-31T07:51:09;12.40;81.60
72320;SHT30;60269;52.502;16.732;2023-03-31T07:54:42;12.46;81.81
72320;SHT30;60269;52.502;16.732;2023-03-31T07:58:14;12.25;81.01
72320;SHT30;60269;52.502;16.732;2023-03-31T08:01:46;12.30;81.04
72320;SHT30;60269;52.502;16.732;2023-03-31T09:17:28;13.55;77.33
72320;SHT30;60269;52.502;16.732;2023-03-31T09:28:35;14.20;76.26
72320;SHT30;60269;52.502;16.732;2023-03-31T09:32:18;14.31;75.96
72320;SHT30;60269;52.502;16.732;2023-03-31T09:35:51;14.32;75.65
72320;SHT30;60269;52.502;16.732;2023-03-31T09:39:23;14.57;74.34
72320;SHT30;60269;52.502;16.732;2023-03-31T09:42:59;13.94;74.85
72320;SHT30;60269;52.502;16.732;2023-03-31T09:46:35;14.09;75.31
72320;SHT30;60269;52.502;16.732;2023-03-31T09:50:10;14.42;74.42
72320;SHT30;60269;52.502;16.732;2023-03-31T09:53:48;14.79;71.92
72320;SHT30;60269;52.502;16.732;2023-03-31T10:01:03;14.62;73.32
72320;SHT30;60269;52.502;16.732;2023-03-31T10:04:44;14.30;73.35
72320;SHT30;60269;52.502;16.732;2023-03-31T10:08:23;14.34;74.14
72320;SHT30;60269;52.502;16.732;2023-03-31T10:12:13;14.44;73.29
72320;SHT30;60269;52.502;16.732;2023-03-31T10:15:51;14.58;74.23
72320;SHT30;60269;52.502;16.732;2023-03-31T10:19:26;14.45;72.48
72320;SHT30;60269;52.502;16.732;2023-03-31T10:23:03;14.85;72.53
72320;SHT30;60269;52.502;16.732;2023-03-31T10:26:36;14.88;71.34
72320;SHT30;60269;52.502;16.732;2023-03-31T10:30:11;14.55;72.24
72320;SHT30;60269;52.502;16.732;2023-03-31T10:33:45;14.68;71.90
72320;SHT30;60269;52.502;16.732;2023-03-31T10:37:22;15.04;73.13
72320;SHT30;60269;52.502;16.732;2023-03-31T10:40:56;14.75;72.97
72320;SHT30;60269;52.502;16.732;2023-03-31T10:44:35;14.95;72.38
72320;SHT30;60269;52.502;16.732;2023-03-31T10:48:26;15.47;71.75
72320;SHT30;60269;52.502;16.732;2023-03-31T10:51:59;16.27;68.67
72320;SHT30;60269;52.502;16.732;2023-03-31T10:55:41;16.40;67.21
72320;SHT30;60269;52.502;16.732;2023-03-31T11:03:25;15.85;69.29
72320;SHT30;60269;52.502;16.732;2023-03-31T11:11:24;15.81;67.99
72320;SHT30;60269;52.502;16.732;2023-03-31T11:15:22;15.34;69.76
72320;SHT30;60269;52.502;16.732;2023-03-31T11:19:05;15.51;69.18
72320;SHT30;60269;52.502;16.732;2023-03-31T11:22:54;15.44;70.19
72320;SHT30;60269;52.502;16.732;2023-03-31T11:26:59;15.46;69.65
72320;SHT30;60269;52.502;16.732;2023-03-31T11:46:06;14.86;70.80
72320;SHT30;60269;52.502;16.732;2023-03-31T11:50:00;15.03;70.99
72320;SHT30;60269;52.502;16.732;2023-03-31T11:53:35;14.95;70.42
72320;SHT30;60269;52.502;16.732;2023-03-31T11:57:30;15.07;70.05
72320;SHT30;60269;52.502;16.732;2023-03-31T12:04:55;14.37;70.16
72320;SHT30;60269;52.502;16.732;2023-03-31T12:08:34;14.22;72.24
72320;SHT30;60269;52.502;16.732;2023-03-31T12:12:28;14.30;72.08
72320;SHT30;60269;52.502;16.732;2023-03-31T12:19:47;13.86;73.93
72320;SHT30;60269;52.502;16.732;2023-03-31T12:23:26;13.82;74.11
72320;SHT30;60269;52.502;16.732;2023-03-31T12:27:06;13.97;74.06
72320;SHT30;60269;52.502;16.732;2023-03-31T12:30:46;14.00;72.15
72320;SHT30;60269;52.502;16.732;2023-03-31T12:34:19;13.93;72.99
72320;SHT30;60269;52.502;16.732;2023-03-31T12:42:28;13.70;73.68
72320;SHT30;60269;52.502;16.732;2023-03-31T12:54:20;13.41;75.99
72320;SHT30;60269;52.502;16.732;2023-03-31T13:05:44;13.14;77.33
72320;SHT30;60269;52.502;16.732;2023-03-31T13:13:05;13.10;78.75
72320;SHT30;60269;52.502;16.732;2023-03-31T13:16:37;13.12;77.78
72320;SHT30;60269;52.502;16.732;2023-03-31T13:20:25;13.26;77.80
72320;SHT30;60269;52.502;16.732;2023-03-31T13:24:00;13.39;78.35
72320;SHT30;60269;52.502;16.732;2023-03-31T13:27:32;13.46;78.40
72320;SHT30;60269;52.502;16.732;2023-03-31T15:24:39;12.15;89.58
72320;SHT30;60269;52.502;16.732;2023-03-31T15:28:14;12.06;91.25
72320;SHT30;60269;52.502;16.732;2023-03-31T15:50:43;9.92;94.78
72320;SHT30;60269;52.502;16.732;2023-03-31T15:54:37;9.79;96.06
72320;SHT30;60269;52.502;16.732;2023-03-31T15:58:14;9.82;96.76
72320;SHT30;60269;52.502;16.732;2023-03-31T16:01:48;9.79;96.53
72320;SHT30;60269;52.502;16.732;2023-03-31T16:09:05;9.75;97.12
72320;SHT30;60269;52.502;16.732;2023-03-31T16:16:26;9.71;97.23
72320;SHT30;60269;52.502;16.732;2023-03-31T16:20:03;9.72;97.08
72320;SHT30;60269;52.502;16.732;2023-03-31T16:23:42;9.69;97.42
72320;SHT30;60269;52.502;16.732;2023-03-31T16:27:16;9.71;97.41
72320;SHT30;60269;52.502;16.732;2023-03-31T16:30:48;9.72;97.41
72320;SHT30;60269;52.502;16.732;2023-03-31T16:34:20;9.69;97.53
72320;SHT30;60269;52.502;16.732;2023-03-31T16:37:53;9.71;97.44
72320;SHT30;60269;52.502;16.732;2023-03-31T16:41:28;9.69;97.31
72320;SHT30;60269;52.502;16.732;2023-03-31T16:45:00;9.66;97.17
72320;SHT30;60269;52.502;16.732;2023-03-31T16:48:45;9.59;97.09
72320;SHT30;60269;52.502;16.732;2023-03-31T16:52:17;9.59;97.14
72320;SHT30;60269;52.502;16.732;2023-03-31T16:55:50;9.58;97.41
72320;SHT30;60269;52.502;16.732;2023-03-31T16:59:23;9.54;97.70
72320;SHT30;60269;52.502;16.732;2023-03-31T17:02:55;9.54;97.82
72320;SHT30;60269;52.502;16.732;2023-03-31T17:06:28;9.52;98.05
72320;SHT30;60269;52.502;16.732;2023-03-31T17:10:00;9.54;97.98
72320;SHT30;60269;52.502;16.732;2023-03-31T17:13:33;9.54;97.99
72320;SHT30;60269;52.502;16.732;2023-03-31T17:17:05;9.55;97.80
72320;SHT30;60269;52.502;16.732;2023-03-31T17:20:38;9.54;98.00
72320;SHT30;60269;52.502;16.732;2023-03-31T17:24:11;9.54;98.06
72320;SHT30;60269;52.502;16.732;2023-03-31T17:27:44;9.56;98.01
72320;SHT30;60269;52.502;16.732;2023-03-31T17:31:19;9.52;98.10
72320;SHT30;60269;52.502;16.732;2023-03-31T17:34:52;9.55;97.97
72320;SHT30;60269;52.502;16.732;2023-03-31T17:38:27;9.54;97.85
72320;SHT30;60269;52.502;16.732;2023-03-31T17:41:59;9.52;98.08
72320;SHT30;60269;52.502;16.732;2023-03-31T17:45:32;9.51;98.14
72320;SHT30;60269;52.502;16.732;2023-03-31T17:49:04;9.48;98.09
72320;SHT30;60269;52.502;16.732;2023-03-31T17:52:36;9.48;98.07
72320;SHT30;60269;52.502;16.732;2023-03-31T17:56:09;9.47;98.11
72320;SHT30;60269;52.502;16.732;2023-03-31T17:59:41;9.42;98.31
72320;SHT30;60269;52.502;16.732;2023-03-31T18:03:14;9.42;98.38
72320;SHT30;60269;52.502;16.732;2023-03-31T18:06:46;9.47;98.41
72320;SHT30;60269;52.502;16.732;2023-03-31T18:10:19;9.41;98.57
72320;SHT30;60269;52.502;16.732;2023-03-31T18:13:53;9.37;98.72
72320;SHT30;60269;52.502;16.732;2023-03-31T18:17:26;9.41;98.73
72320;SHT30;60269;52.502;16.732;2023-03-31T18:21:09;9.42;98.59
72320;SHT30;60269;52.502;16.732;2023-03-31T18:24:41;9.39;98.77
72320;SHT30;60269;52.502;16.732;2023-03-31T18:28:17;9.41;98.66
72320;SHT30;60269;52.502;16.732;2023-03-31T18:31:51;9.38;98.46
72320;SHT30;60269;52.502;16.732;2023-03-31T18:35:23;9.34;98.15
72320;SHT30;60269;52.502;16.732;2023-03-31T18:38:58;9.20;98.24
72320;SHT30;60269;52.502;16.732;2023-03-31T18:42:31;9.16;98.30
72320;SHT30;60269;52.502;16.732;2023-03-31T18:46:03;9.07;98.04
72320;SHT30;60269;52.502;16.732;2023-03-31T18:49:35;9.03;98.29
72320;SHT30;60269;52.502;16.732;2023-03-31T18:53:08;8.99;98.42
72320;SHT30;60269;52.502;16.732;2023-03-31T18:56:40;8.97;98.49
72320;SHT30;60269;52.502;16.732;2023-03-31T19:00:13;8.93;98.44
72320;SHT30;60269;52.502;16.732;2023-03-31T19:03:46;8.90;98.48
72320;SHT30;60269;52.502;16.732;2023-03-31T19:07:18;8.90;98.36
72320;SHT30;60269;52.502;16.732;2023-03-31T19:10:50;8.86;98.43
72320;SHT30;60269;52.502;16.732;2023-03-31T19:14:23;8.84;98.40
72320;SHT30;60269;52.502;16.732;2023-03-31T19:17:58;8.80;98.55
72320;SHT30;60269;52.502;16.732;2023-03-31T19:21:30;8.80;98.62
72320;SHT30;60269;52.502;16.732;2023-03-31T19:25:04;8.77;98.68
72320;SHT30;60269;52.502;16.732;2023-03-31T19:28:36;8.79;98.69
72320;SHT30;60269;52.502;16.732;2023-03-31T19:32:08;8.79;98.67
72320;SHT30;60269;52.502;16.732;2023-03-31T19:35:41;8.79;98.72
72320;SHT30;60269;52.502;16.732;2023-03-31T19:39:15;8.79;98.74
72320;SHT30;60269;52.502;16.732;2023-03-31T19:42:47;8.79;98.63
72320;SHT30;60269;52.502;16.732;2023-03-31T19:46:19;8.79;98.67
72320;SHT30;60269;52.502;16.732;2023-03-31T19:49:52;8.76;98.79
72320;SHT30;60269;52.502;16.732;2023-03-31T19:53:24;8.81;98.89
72320;SHT30;60269;52.502;16.732;2023-03-31T19:56:57;8.77;98.95
72320;SHT30;60269;52.502;16.732;2023-03-31T20:00:30;8.76;98.91
72320;SHT30;60269;52.502;16.732;2023-03-31T20:04:03;8.73;99.00
72320;SHT30;60269;52.502;16.732;2023-03-31T20:07:35;8.73;99.04
72320;SHT30;60269;52.502;16.732;2023-03-31T20:11:09;8.66;99.12
72320;SHT30;60269;52.502;16.732;2023-03-31T20:14:45;8.69;99.15
72320;SHT30;60269;52.502;16.732;2023-03-31T20:18:17;8.65;99.24
72320;SHT30;60269;52.502;16.732;2023-03-31T20:21:51;8.63;99.30
72320;SHT30;60269;52.502;16.732;2023-03-31T20:25:28;8.65;99.33
72320;SHT30;60269;52.502;16.732;2023-03-31T20:29:01;8.63;99.30
72320;SHT30;60269;52.502;16.732;2023-03-31T20:32:37;8.65;99.36
72320;SHT30;60269;52.502;16.732;2023-03-31T20:36:11;8.66;99.37
72320;SHT30;60269;52.502;16.732;2023-03-31T20:39:46;8.68;99.43
72320;SHT30;60269;52.502;16.732;2023-03-31T20:43:19;8.66;99.41
72320;SHT30;60269;52.502;16.732;2023-03-31T20:46:51;8.68;99.16
72320;SHT30;60269;52.502;16.732;2023-03-31T20:50:23;8.68;99.06
72320;SHT30;60269;52.502;16.732;2023-03-31T20:53:57;8.66;99.03
72320;SHT30;60269;52.502;16.732;2023-03-31T20:57:29;8.66;99.06
72320;SHT30;60269;52.502;16.732;2023-03-31T21:01:02;8.72;98.90
72320;SHT30;60269;52.502;16.732;2023-03-31T21:04:34;8.72;98.76
72320;SHT30;60269;52.502;16.732;2023-03-31T21:08:07;8.68;98.77
72320;SHT30;60269;52.502;16.732;2023-03-31T21:11:39;8.76;98.74
72320;SHT30;60269;52.502;16.732;2023-03-31T21:15:11;8.69;99.00
72320;SHT30;60269;52.502;16.732;2023-03-31T21:18:43;8.70;99.02
72320;SHT30;60269;52.502;16.732;2023-03-31T21:22:16;8.70;98.98
72320;SHT30;60269;52.502;16.732;2023-03-31T21:25:50;8.65;98.78
72320;SHT30;60269;52.502;16.732;2023-03-31T21:29:23;8.60;98.77
72320;SHT30;60269;52.502;16.732;2023-03-31T21:32:55;8.56;98.70
72320;SHT30;60269;52.502;16.732;2023-03-31T21:36:27;8.52;98.76
72320;SHT30;60269;52.502;16.732;2023-03-31T21:40:00;8.52;98.83
72320;SHT30;60269;52.502;16.732;2023-03-31T21:43:32;8.60;98.68
72320;SHT30;60269;52.502;16.732;2023-03-31T21:47:05;8.62;98.63
72320;SHT30;60269;52.502;16.732;2023-03-31T21:50:38;8.55;98.57
72320;SHT30;60269;52.502;16.732;2023-03-31T21:54:10;8.52;98.71
72320;SHT30;60269;52.502;16.732;2023-03-31T21:57:43;8.55;98.86
72320;SHT30;60269;52.502;16.732;2023-03-31T22:01:15;8.53;99.03
72320;SHT30;60269;52.502;16.732;2023-03-31T22:04:49;8.50;99.17
72320;SHT30;60269;52.502;16.732;2023-03-31T22:08:23;8.52;99.23
72320;SHT30;60269;52.502;16.732;2023-03-31T22:11:55;8.55;99.13
72320;SHT30;60269;52.502;16.732;2023-03-31T22:15:27;8.46;99.11
72320;SHT30;60269;52.502;16.732;2023-03-31T22:18:59;8.48;99.10
72320;SHT30;60269;52.502;16.732;2023-03-31T22:22:31;8.46;99.13
72320;SHT30;60269;52.502;16.732;2023-03-31T22:26:03;8.44;99.23
72320;SHT30;60269;52.502;16.732;2023-03-31T22:29:37;8.45;99.30
72320;SHT30;60269;52.502;16.732;2023-03-31T22:33:09;8.45;99.32
72320;SHT30;60269;52.502;16.732;2023-03-31T22:36:41;8.38;99.34
72320;SHT30;60269;52.502;16.732;2023-03-31T22:40:13;8.39;99.28
72320;SHT30;60269;52.502;16.732;2023-03-31T22:43:45;8.44;99.11
72320;SHT30;60269;52.502;16.732;2023-03-31T22:47:17;8.38;99.25
72320;SHT30;60269;52.502;16.732;2023-03-31T22:50:50;8.37;99.01
72320;SHT30;60269;52.502;16.732;2023-03-31T22:54:22;8.31;98.94
72320;SHT30;60269;52.502;16.732;2023-03-31T22:57:54;8.25;99.02
72320;SHT30;60269;52.502;16.732;2023-03-31T23:01:26;8.24;98.94
72320;SHT30;60269;52.502;16.732;2023-03-31T23:04:58;8.22;98.92
72320;SHT30;60269;52.502;16.732;2023-03-31T23:08:31;8.18;98.92
72320;SHT30;60269;52.502;16.732;2023-03-31T23:12:04;8.17;98.98
72320;SHT30;60269;52.502;16.732;2023-03-31T23:15:36;8.12;98.96
72320;SHT30;60269;52.502;16.732;2023-03-31T23:19:08;8.17;98.98
72320;SHT30;60269;52.502;16.732;2023-03-31T23:22:40;8.12;99.02
72320;SHT30;60269;52.502;16.732;2023-03-31T23:26:12;8.14;98.94
72320;SHT30;60269;52.502;16.732;2023-03-31T23:29:45;8.14;99.00
72320;SHT30;60269;52.502;16.732;2023-03-31T23:33:18;8.12;98.99
72320;SHT30;60269;52.502;16.732;2023-03-31T23:36:50;8.15;98.95
72320;SHT30;60269;52.502;16.732;2023-03-31T23:40:23;8.10;99.00
72320;SHT30;60269;52.502;16.732;2023-03-31T23:43:55;8.07;99.05
72320;SHT30;60269;52.502;16.732;2023-03-31T23:47:28;8.05;99.08
72320;SHT30;60269;52.502;16.732;2023-03-31T23:51:01;8.04;99.19
72320;SHT30;60269;52.502;16.732;2023-03-31T23:54:33;8.08;99.22
72320;SHT30;60269;52.502;16.732;2023-03-31T23:58:06;8.05;99.21
